KHLC

Details ICAO KHLC
Name HILL CITY MUNI
Region United States
Timezone America/Chicago (UTC-5.0)
Plans Departing 1
Arriving 4
Stats Elevation 2,230 ft / 680 m (AMSL)
Location 39.380206° -99.831460°
Runways 1
Magnetic Variation 5.176° E
Sunrise 2018-05-25 11:19:26 UTC / 2018-05-25 06:19:26 Local
Sunset 2018-05-26 01:56:01 UTC / 2018-05-25 20:56:01 Local
Advertisement - Login to hide

Runways

ID Width Length Bearing (true) Bearing (mag) Surface Threshold Offset Overrun Length
17 75 ft / 23 m 5,009 ft / 1,527 m 181.17° 175.99° Concrete 0 ft / 0 m 0 ft / 0 m
35 75 ft / 23 m 5,009 ft / 1,527 m 1.17° 355.99° Concrete 0 ft / 0 m 0 ft / 0 m

Map

Weather


0- 5 10 15 20 25 30 35+ Temperature / ° C

Clouds and Precipitation
Forecast for 2018-05-25 18:00 UTC. Updated 2 hours ago

Ground ~20,000 ft ~40,000 ft Winds

METAR

KHLC 251853Z AUTO 00000KT 10SM CLR 31/19 A2991 RMK AO2 SLP108 T03060194

TAF

Not found

Frequencies

Recorded 118.42 MHz ASOS
Unicom 122.80 MHz CTAF
Warning: Do not use this data for real-world aviation or navigation. No guarantee of current accuracy is given.